createdAt,value
2022-09-27T00:04:22.188Z,64.48
2022-09-27T00:09:24.293Z,64.33
2022-09-27T00:14:26.392Z,64.22
2022-09-27T00:19:28.626Z,64.71
2022-09-27T00:24:31.783Z,64.13
2022-09-27T00:29:34.065Z,64.26
2022-09-27T00:34:36.182Z,64.54
2022-09-27T00:39:41.498Z,63.97
2022-09-27T00:44:52.693Z,64.19
2022-09-27T00:50:03.445Z,63.97
2022-09-27T00:55:22.760Z,63.88
2022-09-27T01:00:24.930Z,64.41
2022-09-27T01:05:29.810Z,64.29
2022-09-27T01:10:41.069Z,64.08
2022-09-27T01:16:01.606Z,63.98
2022-09-27T01:21:32.744Z,64.52
2022-09-27T01:26:59.072Z,64.08
2022-09-27T01:32:12.892Z,64.43
2022-09-27T01:37:27.321Z,63.86
2022-09-27T01:42:40.276Z,64.34
2022-09-27T01:47:49.024Z,63.90
2022-09-27T01:53:20.938Z,64.12
2022-09-27T01:59:01.223Z,63.26
2022-09-27T02:04:06.023Z,63.40
2022-09-27T02:09:53.161Z,63.73
2022-09-27T02:15:10.159Z,64.43
2022-09-27T02:20:38.652Z,64.28
2022-09-27T02:25:43.809Z,64.36
2022-09-27T02:30:47.778Z,64.63
2022-09-27T02:36:02.331Z,64.46
2022-09-27T02:41:14.480Z,64.66
2022-09-27T02:46:44.561Z,64.57
2022-09-27T02:51:58.764Z,64.41
2022-09-27T02:57:05.828Z,64.86
2022-09-27T03:02:16.556Z,64.61
2022-09-27T03:07:41.519Z,64.16
2022-09-27T03:12:44.513Z,64.73
2022-09-27T03:17:47.313Z,64.73
2022-09-27T03:23:12.741Z,64.82
2022-09-27T03:28:14.998Z,64.99
2022-09-27T03:33:18.564Z,65.13
2022-09-27T03:38:24.066Z,65.00
2022-09-27T03:43:26.373Z,64.70
2022-09-27T03:48:32.669Z,64.27
2022-09-27T03:53:34.955Z,63.58
2022-09-27T03:58:37.449Z,63.20
2022-09-27T04:03:40.186Z,62.68
2022-09-27T04:09:01.475Z,62.42
2022-09-27T04:14:18.565Z,61.74
2022-09-27T04:19:40.583Z,61.56
2022-09-27T04:24:45.441Z,60.99
2022-09-27T04:30:01.485Z,60.09
2022-09-27T04:35:42.005Z,59.26
2022-09-27T04:40:45.202Z,59.58
2022-09-27T04:45:47.939Z,59.47
2022-09-27T04:50:57.577Z,59.33
2022-09-27T04:56:05.323Z,58.77
2022-09-27T05:01:07.831Z,57.96
2022-09-27T05:06:32.657Z,57.20
2022-09-27T05:11:41.866Z,56.67
2022-09-27T05:16:50.046Z,56.53
2022-09-27T05:22:10.452Z,56.90
2022-09-27T05:27:18.681Z,56.99
2022-09-27T05:32:21.710Z,56.65
2022-09-27T05:37:31.563Z,56.85
2022-09-27T05:42:36.217Z,56.42
2022-09-27T05:47:38.359Z,56.72
2022-09-27T05:52:40.390Z,56.87
2022-09-27T05:57:43.045Z,57.26
2022-09-27T06:02:45.324Z,57.35
2022-09-27T06:07:51.169Z,57.23
2022-09-27T06:13:02.674Z,57.77
2022-09-27T06:18:12.724Z,56.32
2022-09-27T06:23:18.797Z,56.14
2022-09-27T06:28:22.734Z,56.01
2022-09-27T06:33:29.441Z,55.85
2022-09-27T06:38:34.487Z,56.32
2022-09-27T06:43:55.803Z,57.34
2022-09-27T06:49:16.729Z,56.92
2022-09-27T06:54:19.365Z,57.13
2022-09-27T06:59:40.643Z,57.35
2022-09-27T07:05:10.748Z,57.22
2022-09-27T07:10:34.702Z,56.53
2022-09-27T07:15:41.673Z,57.05
2022-09-27T07:20:47.993Z,56.85
2022-09-27T07:25:50.799Z,56.40
2022-09-27T07:30:56.922Z,56.49
2022-09-27T07:36:00.500Z,56.43
2022-09-27T07:41:11.042Z,56.36
2022-09-27T07:46:13.822Z,55.96
2022-09-27T07:51:27.292Z,56.70
2022-09-27T07:56:39.698Z,56.82
2022-09-27T08:01:43.180Z,56.47
2022-09-27T08:06:45.269Z,56.17
2022-09-27T08:11:48.614Z,55.83
2022-09-27T08:16:51.929Z,56.14
2022-09-27T08:22:21.492Z,55.93
2022-09-27T08:27:33.301Z,55.96
2022-09-27T08:32:38.542Z,56.33
2022-09-27T08:37:41.818Z,57.05
2022-09-27T08:43:01.818Z,56.82
2022-09-27T08:48:06.243Z,57.31
2022-09-27T08:53:14.370Z,57.42
2022-09-27T08:58:25.651Z,57.57
2022-09-27T09:03:31.310Z,57.72
2022-09-27T09:08:51.206Z,57.16
2022-09-27T09:14:00.759Z,58.35
2022-09-27T09:19:23.830Z,58.63
2022-09-27T09:25:32.387Z,58.89
2022-09-27T09:30:57.284Z,59.20
2022-09-27T09:36:20.316Z,59.64
2022-09-27T09:41:29.502Z,59.71
2022-09-27T09:46:42.308Z,59.70
2022-09-27T09:51:56.861Z,59.78
2022-09-27T09:57:14.397Z,60.04
2022-09-27T10:02:25.851Z,60.24
2022-09-27T10:07:32.457Z,60.24
2022-09-27T10:12:36.494Z,60.32
2022-09-27T10:17:44.996Z,60.34
2022-09-27T10:22:55.671Z,59.98
2022-09-27T10:28:39.048Z,60.22
2022-09-27T10:34:05.514Z,60.31
2022-09-27T10:39:24.190Z,59.89
2022-09-27T10:44:28.441Z,59.94
2022-09-27T10:49:52.835Z,59.59
2022-09-27T10:55:23.611Z,59.90
2022-09-27T11:00:36.692Z,59.91
2022-09-27T11:05:41.166Z,60.22
2022-09-27T11:10:43.316Z,60.04
2022-09-27T11:16:19.415Z,60.29
2022-09-27T11:21:42.621Z,60.20
2022-09-27T11:26:55.784Z,60.26
2022-09-27T11:32:16.858Z,60.36
2022-09-27T11:37:28.232Z,60.27
2022-09-27T11:43:04.520Z,60.48
2022-09-27T11:48:28.014Z,60.50
2022-09-27T11:54:06.641Z,60.74
2022-09-27T11:59:24.977Z,60.85
2022-09-27T12:04:31.616Z,60.81
2022-09-27T12:09:43.587Z,61.13
2022-09-27T12:14:50.922Z,61.68
2022-09-27T12:19:57.118Z,61.42
2022-09-27T12:25:20.729Z,61.43
2022-09-27T12:30:35.843Z,61.37
2022-09-27T12:35:47.392Z,61.32
2022-09-27T12:40:55.609Z,61.28
2022-09-27T12:46:35.408Z,61.49
2022-09-27T12:51:54.466Z,61.88
2022-09-27T12:57:18.972Z,61.81
2022-09-27T13:03:04.051Z,61.69
2022-09-27T13:08:31.939Z,61.50
2022-09-27T13:13:36.909Z,61.89
2022-09-27T13:18:53.259Z,62.02
2022-09-27T13:23:56.277Z,61.82
2022-09-27T13:29:04.161Z,62.04
2022-09-27T13:34:38.931Z,62.35
2022-09-27T13:39:42.253Z,62.31
2022-09-27T13:45:29.166Z,62.45
2022-09-27T13:50:47.171Z,62.61
2022-09-27T13:55:52.444Z,62.96
2022-09-27T14:01:34.288Z,62.68
2022-09-27T14:06:44.006Z,62.66
2022-09-27T14:11:55.325Z,62.69
2022-09-27T14:17:00.544Z,62.63
2022-09-27T14:22:02.917Z,62.33
2022-09-27T14:27:36.176Z,62.12
2022-09-27T14:33:00.430Z,62.26
2022-09-27T14:38:37.965Z,62.47
2022-09-27T14:43:50.709Z,62.71
2022-09-27T14:48:53.397Z,62.92
2022-09-27T14:54:01.474Z,63.30
2022-09-27T14:59:28.223Z,62.99
2022-09-27T15:04:35.161Z,63.37
2022-09-27T15:09:39.601Z,63.23
2022-09-27T15:14:45.008Z,63.20
2022-09-27T15:19:59.061Z,63.41
2022-09-27T15:25:19.709Z,63.25
2022-09-27T15:30:37.816Z,63.46
2022-09-27T15:35:39.996Z,63.65
2022-09-27T15:40:51.010Z,63.63
2022-09-27T15:45:53.598Z,63.74
2022-09-27T15:50:55.649Z,63.75
2022-09-27T15:55:57.889Z,63.48
2022-09-27T16:01:08.413Z,63.44
2022-09-27T16:06:11.853Z,63.60
2022-09-27T16:11:16.264Z,63.67
2022-09-27T16:16:20.394Z,63.59
2022-09-27T16:21:22.576Z,63.47
2022-09-27T16:26:24.900Z,63.82
2022-09-27T16:31:27.103Z,63.66
2022-09-27T16:36:29.136Z,63.70
2022-09-27T16:41:31.285Z,63.66
2022-09-27T16:46:34.764Z,63.80
2022-09-27T16:51:55.548Z,63.74
2022-09-27T16:56:58.929Z,63.84
2022-09-27T17:02:01.091Z,63.82
2022-09-27T17:07:03.281Z,63.87
2022-09-27T17:12:09.853Z,64.05
2022-09-27T17:17:13.409Z,64.06
2022-09-27T17:22:15.489Z,63.92
2022-09-27T17:27:17.780Z,63.92
2022-09-27T17:32:24.850Z,64.01
2022-09-27T17:37:26.904Z,64.04
2022-09-27T17:42:29.207Z,64.04
2022-09-27T17:47:49.888Z,64.15
2022-09-27T17:52:53.553Z,64.01
2022-09-27T17:57:55.611Z,64.04
2022-09-27T18:02:57.751Z,64.21
2022-09-27T18:08:00.455Z,64.09
2022-09-27T18:13:03.274Z,64.28
2022-09-27T18:18:05.542Z,64.09
2022-09-27T18:23:07.550Z,64.23
2022-09-27T18:28:09.716Z,64.35
2022-09-27T18:33:11.728Z,64.32
2022-09-27T18:38:13.781Z,64.24
2022-09-27T18:43:15.793Z,64.24
2022-09-27T18:48:17.808Z,64.33
2022-09-27T18:53:20.069Z,64.33
2022-09-27T18:58:22.394Z,64.37
2022-09-27T19:03:24.426Z,64.43
2022-09-27T19:08:26.600Z,64.47
2022-09-27T19:13:32.074Z,64.38
2022-09-27T19:18:40.401Z,64.59
2022-09-27T19:23:43.151Z,64.54
2022-09-27T19:28:46.401Z,64.78
2022-09-27T19:33:48.763Z,64.52
2022-09-27T19:38:52.353Z,64.58
2022-09-27T19:43:55.716Z,64.79
2022-09-27T19:48:57.861Z,64.73
2022-09-27T19:54:00.025Z,64.90
2022-09-27T19:59:06.838Z,64.85
2022-09-27T20:04:12.863Z,64.85
2022-09-27T20:09:15.240Z,64.90
2022-09-27T20:14:18.257Z,64.88
2022-09-27T20:19:20.351Z,64.78
2022-09-27T20:24:22.520Z,65.03
2022-09-27T20:29:24.809Z,64.95
2022-09-27T20:34:27.148Z,64.88
2022-09-27T20:39:29.210Z,65.06
2022-09-27T20:44:32.248Z,64.81
2022-09-27T20:49:34.276Z,64.97
2022-09-27T20:54:36.355Z,65.07
2022-09-27T20:59:38.428Z,64.92
2022-09-27T21:09:43.481Z,65.09
2022-09-27T21:14:45.473Z,65.24
2022-09-27T21:19:47.577Z,65.17
2022-09-27T21:24:49.529Z,65.10
2022-09-27T21:29:51.574Z,65.26
2022-09-27T21:34:53.633Z,65.08
2022-09-27T21:39:58.300Z,65.15
2022-09-27T21:45:01.160Z,65.16
2022-09-27T21:50:03.193Z,65.23
2022-09-27T21:55:06.378Z,65.28
2022-09-27T22:00:09.579Z,65.36
2022-09-27T22:05:11.716Z,65.23
2022-09-27T22:10:13.785Z,65.19
2022-09-27T22:15:15.827Z,65.42
2022-09-27T22:20:18.227Z,65.29
2022-09-27T22:25:20.482Z,65.41
2022-09-27T22:30:22.627Z,65.51
2022-09-27T22:35:24.700Z,65.33
2022-09-27T22:40:26.791Z,65.55
2022-09-27T22:45:28.861Z,65.54
2022-09-27T22:50:31.235Z,65.57
2022-09-27T22:55:33.699Z,65.36
2022-09-27T23:00:38.286Z,65.59
2022-09-27T23:05:40.450Z,65.59
2022-09-27T23:10:43.174Z,65.34
2022-09-27T23:15:45.334Z,65.60
2022-09-27T23:20:47.457Z,65.35
2022-09-27T23:25:49.524Z,65.73
2022-09-27T23:30:51.549Z,65.54
2022-09-27T23:35:53.619Z,65.75
2022-09-27T23:40:55.695Z,65.66
2022-09-27T23:45:57.780Z,65.45
2022-09-27T23:50:59.889Z,65.65
2022-09-27T23:56:06.706Z,65.41
